createdAt,value
2023-07-01T00:02:20.481Z,15.40
2023-07-01T00:07:55.565Z,15.75
2023-07-01T00:10:41.953Z,15.77
2023-07-01T00:13:32.111Z,16.40
2023-07-01T00:16:18.508Z,16.23
2023-07-01T00:19:05.014Z,15.25
2023-07-01T00:21:50.900Z,14.90
2023-07-01T00:24:36.925Z,14.30
2023-07-01T00:27:22.829Z,15.18
2023-07-01T00:30:09.532Z,14.88
2023-07-01T00:32:55.891Z,14.88
2023-07-01T00:35:42.276Z,14.95
2023-07-01T00:38:28.299Z,15.77
2023-07-01T00:41:16.038Z,14.68
2023-07-01T00:44:04.951Z,15.43
2023-07-01T00:46:51.560Z,15.70
2023-07-01T00:52:24.984Z,14.63
2023-07-01T00:55:14.466Z,14.55
2023-07-01T00:58:00.904Z,14.77
2023-07-01T01:00:47.120Z,14.38
2023-07-01T01:03:44.551Z,15.60
2023-07-01T01:06:56.443Z,14.85
2023-07-01T01:09:49.287Z,15.23
2023-07-01T01:12:38.374Z,16.40
2023-07-01T01:15:28.501Z,15.65
2023-07-01T01:18:18.046Z,15.27
2023-07-01T01:21:05.829Z,14.93
2023-07-01T01:23:57.688Z,15.15
2023-07-01T01:26:47.125Z,15.55
2023-07-01T01:29:33.405Z,15.05
2023-07-01T01:32:20.036Z,15.52
2023-07-01T01:35:07.418Z,15.50
2023-07-01T01:38:05.215Z,14.65
2023-07-01T01:41:01.655Z,17.02
2023-07-01T01:44:05.011Z,15.93
2023-07-01T01:46:51.133Z,15.73
2023-07-01T01:49:37.105Z,15.07
2023-07-01T01:52:23.971Z,15.32
2023-07-01T01:55:13.201Z,16.02
2023-07-01T01:58:00.460Z,15.45
2023-07-01T02:00:47.947Z,14.40
2023-07-01T02:03:34.223Z,15.10
2023-07-01T02:06:20.529Z,13.75
2023-07-01T02:09:06.537Z,12.52
2023-07-01T02:11:52.646Z,13.90
2023-07-01T02:14:38.493Z,13.50
2023-07-01T02:17:24.973Z,11.70
2023-07-01T02:20:11.465Z,10.95
2023-07-01T02:22:57.364Z,11.35
2023-07-01T02:25:43.950Z,10.85
2023-07-01T02:28:30.097Z,10.63
2023-07-01T02:31:19.343Z,10.13
2023-07-01T02:34:05.552Z,10.30
2023-07-01T02:36:51.533Z,10.23
2023-07-01T02:39:37.548Z,10.25
2023-07-01T02:42:25.502Z,9.48
2023-07-01T02:45:11.795Z,9.45
2023-07-01T02:47:57.983Z,8.15
2023-07-01T02:53:31.177Z,8.85
2023-07-01T02:56:17.554Z,8.48
2023-07-01T02:59:04.916Z,8.48
2023-07-01T03:01:52.121Z,9.13
2023-07-01T03:04:38.109Z,7.95
2023-07-01T03:07:24.484Z,8.02
2023-07-01T03:10:10.660Z,8.07
2023-07-01T03:12:56.878Z,7.80
2023-07-01T03:15:43.008Z,7.57
2023-07-01T03:18:29.324Z,7.60
2023-07-01T03:21:15.829Z,6.53
2023-07-01T03:24:02.707Z,6.60
2023-07-01T03:26:49.137Z,6.53
2023-07-01T03:29:35.025Z,6.22
2023-07-01T03:35:08.044Z,6.53
2023-07-01T03:37:54.387Z,6.55
2023-07-01T03:40:40.921Z,5.95
2023-07-01T03:43:28.422Z,6.10
2023-07-01T03:46:15.199Z,6.22
2023-07-01T03:49:01.762Z,6.45
2023-07-01T03:51:47.768Z,7.00
2023-07-01T03:54:33.644Z,7.13
2023-07-01T04:00:20.298Z,6.32
2023-07-01T04:03:06.850Z,6.68
2023-07-01T04:05:53.488Z,6.75
2023-07-01T04:08:39.715Z,6.80
2023-07-01T04:11:25.841Z,6.90
2023-07-01T04:14:12.303Z,6.22
2023-07-01T04:16:58.359Z,5.72
2023-07-01T04:22:30.894Z,6.20
2023-07-01T04:25:16.984Z,5.93
2023-07-01T04:28:03.567Z,6.20
2023-07-01T04:30:50.102Z,5.85
2023-07-01T04:33:36.764Z,5.68
2023-07-01T04:36:23.544Z,5.65
2023-07-01T04:39:10.511Z,5.65
2023-07-01T04:41:56.372Z,5.82
2023-07-01T04:44:42.285Z,5.63
2023-07-01T04:47:29.003Z,5.82
2023-07-01T04:50:15.294Z,5.68
2023-07-01T04:53:01.415Z,5.50
2023-07-01T04:55:50.141Z,5.20
2023-07-01T04:58:36.141Z,6.75
2023-07-01T05:01:22.194Z,5.88
2023-07-01T05:06:54.655Z,6.00
2023-07-01T05:09:40.564Z,5.78
2023-07-01T05:12:27.891Z,5.93
2023-07-01T05:15:14.205Z,4.72
2023-07-01T05:18:00.109Z,5.53
2023-07-01T05:20:46.465Z,5.97
2023-07-01T05:23:32.686Z,6.28
2023-07-01T05:26:18.758Z,5.13
2023-07-01T05:29:04.985Z,5.43
2023-07-01T05:31:51.055Z,6.28
2023-07-01T05:34:37.691Z,6.05
2023-07-01T05:40:10.337Z,5.85
2023-07-01T05:42:56.432Z,5.68
2023-07-01T05:45:42.323Z,5.20
2023-07-01T05:48:28.182Z,5.90
2023-07-01T05:51:14.040Z,5.95
2023-07-01T05:54:00.134Z,5.38
2023-07-01T05:56:46.255Z,5.95
2023-07-01T05:59:32.244Z,5.90
2023-07-01T06:02:18.296Z,5.47
2023-07-01T06:05:05.134Z,5.55
2023-07-01T06:10:38.233Z,5.32
2023-07-01T06:13:24.566Z,6.03
2023-07-01T06:16:10.501Z,5.40
2023-07-01T06:18:56.784Z,5.57
2023-07-01T06:21:43.248Z,5.72
2023-07-01T06:24:29.816Z,5.18
2023-07-01T06:30:01.706Z,5.32
2023-07-01T06:32:48.084Z,5.30
2023-07-01T06:35:34.473Z,5.57
2023-07-01T06:38:21.208Z,5.78
2023-07-01T06:41:08.019Z,5.28
2023-07-01T06:43:54.146Z,5.65
2023-07-01T06:46:40.187Z,5.60
2023-07-01T06:49:26.312Z,5.43
2023-07-01T06:52:12.352Z,5.18
2023-07-01T06:54:58.310Z,5.03
2023-07-01T06:57:44.494Z,4.82
2023-07-01T07:00:31.640Z,4.70
2023-07-01T07:03:18.188Z,5.50
2023-07-01T07:06:04.624Z,5.30
2023-07-01T07:08:50.468Z,5.07
2023-07-01T07:11:36.450Z,5.15
2023-07-01T07:14:23.659Z,4.70
2023-07-01T07:17:09.920Z,4.40
2023-07-01T07:19:56.560Z,4.53
2023-07-01T07:22:42.463Z,5.15
2023-07-01T07:25:28.681Z,4.90
2023-07-01T07:28:14.643Z,5.38
2023-07-01T07:31:00.691Z,5.10
2023-07-01T07:33:46.760Z,4.90
2023-07-01T07:36:32.600Z,4.78
2023-07-01T07:39:19.135Z,4.72
2023-07-01T07:44:51.415Z,4.63
2023-07-01T07:47:37.430Z,4.28
2023-07-01T07:50:23.758Z,4.55
2023-07-01T07:55:56.135Z,4.55
2023-07-01T07:58:41.939Z,4.82
2023-07-01T08:01:28.025Z,4.43
2023-07-01T08:04:14.422Z,4.32
2023-07-01T08:07:01.085Z,4.35
2023-07-01T08:09:47.057Z,4.30
2023-07-01T08:15:19.956Z,4.65
2023-07-01T08:18:06.158Z,4.30
2023-07-01T08:20:52.643Z,4.72
2023-07-01T08:23:38.693Z,3.72
2023-07-01T08:26:24.704Z,4.63
2023-07-01T08:29:11.506Z,4.15
2023-07-01T08:31:57.448Z,3.88
2023-07-01T08:34:43.355Z,3.92
2023-07-01T08:37:29.294Z,4.55
2023-07-01T08:40:15.929Z,4.53
2023-07-01T08:43:05.057Z,4.50
2023-07-01T08:45:52.894Z,4.05
2023-07-01T08:48:39.828Z,3.95
2023-07-01T08:51:27.192Z,3.78
2023-07-01T08:54:14.693Z,3.80
2023-07-01T08:57:01.479Z,3.60
2023-07-01T08:59:51.497Z,3.45
2023-07-01T09:02:38.597Z,4.07
2023-07-01T09:05:24.809Z,3.50
2023-07-01T09:10:59.387Z,4.18
2023-07-01T09:13:45.512Z,4.15
2023-07-01T09:16:36.694Z,4.07
2023-07-01T09:19:24.369Z,4.13
2023-07-01T09:22:11.067Z,3.80
2023-07-01T09:24:58.158Z,3.60
2023-07-01T09:27:50.113Z,4.05
2023-07-01T09:30:37.494Z,3.88
2023-07-01T09:33:24.032Z,3.85
2023-07-01T09:36:11.590Z,3.97
2023-07-01T09:38:58.352Z,3.50
2023-07-01T09:41:44.456Z,4.13
2023-07-01T09:44:31.598Z,3.60
2023-07-01T09:47:27.222Z,3.97
2023-07-01T09:50:27.702Z,3.78
2023-07-01T09:53:21.664Z,3.50
2023-07-01T09:56:08.554Z,2.95
2023-07-01T09:58:54.959Z,3.47
2023-07-01T10:01:41.438Z,4.60
2023-07-01T10:04:30.511Z,3.30
2023-07-01T10:07:17.445Z,3.35
2023-07-01T10:10:04.135Z,3.50
2023-07-01T10:15:40.601Z,4.03
2023-07-01T10:18:31.472Z,3.58
2023-07-01T10:21:31.649Z,3.83
2023-07-01T10:24:39.075Z,3.50
2023-07-01T10:27:44.150Z,3.80
2023-07-01T10:30:45.760Z,3.67
2023-07-01T10:33:34.106Z,3.45
2023-07-01T10:36:20.390Z,3.65
2023-07-01T10:39:32.169Z,3.95
2023-07-01T10:42:34.926Z,3.47
2023-07-01T10:45:27.921Z,3.60
2023-07-01T10:48:17.635Z,3.25
2023-07-01T10:51:15.072Z,3.60
2023-07-01T10:54:06.609Z,5.88
2023-07-01T10:57:18.432Z,3.63
2023-07-01T11:00:38.077Z,3.58
2023-07-01T11:03:37.576Z,3.50
2023-07-01T11:06:24.461Z,3.38
2023-07-01T11:09:11.447Z,3.65
2023-07-01T11:11:58.744Z,3.60
2023-07-01T11:14:44.953Z,3.78
2023-07-01T11:17:31.095Z,3.70
2023-07-01T11:20:17.556Z,3.42
2023-07-01T11:23:04.491Z,3.58
2023-07-01T11:25:50.704Z,3.28
2023-07-01T11:28:38.204Z,4.05
2023-07-01T11:31:26.779Z,3.90
2023-07-01T11:34:15.696Z,3.78
2023-07-01T11:37:03.188Z,3.80
2023-07-01T11:39:49.508Z,4.05
2023-07-01T11:42:35.489Z,3.50
2023-07-01T11:45:21.426Z,3.40
2023-07-01T11:48:07.519Z,3.60
2023-07-01T11:50:54.056Z,3.35
2023-07-01T11:53:57.180Z,3.10
2023-07-01T11:56:44.831Z,2.97
2023-07-01T11:59:40.667Z,2.83
2023-07-01T12:02:31.496Z,3.10
2023-07-01T12:05:21.369Z,3.03
2023-07-01T12:08:07.445Z,3.20
2023-07-01T12:13:40.031Z,3.15
2023-07-01T12:16:43.590Z,3.20
2023-07-01T12:19:31.517Z,3.45
2023-07-01T12:22:18.006Z,2.80
2023-07-01T12:25:05.054Z,3.10
2023-07-01T12:27:51.274Z,3.13
2023-07-01T12:30:37.349Z,3.00
2023-07-01T12:33:23.804Z,3.20
2023-07-01T12:36:09.833Z,3.30
2023-07-01T12:38:57.575Z,3.58
2023-07-01T12:41:45.416Z,3.60
2023-07-01T12:44:31.499Z,3.33
2023-07-01T12:47:20.118Z,3.40
2023-07-01T12:50:09.851Z,3.30
2023-07-01T12:52:55.844Z,3.10
2023-07-01T12:55:42.441Z,3.35
2023-07-01T12:58:28.544Z,3.30
2023-07-01T13:01:14.704Z,3.03
2023-07-01T13:06:48.866Z,3.20
2023-07-01T13:09:46.125Z,2.92
2023-07-01T13:12:32.714Z,3.30
2023-07-01T13:15:30.409Z,3.20
2023-07-01T13:18:22.591Z,3.75
2023-07-01T13:21:10.066Z,3.13
2023-07-01T13:23:56.628Z,3.47
2023-07-01T13:29:33.080Z,3.35
2023-07-01T13:32:22.719Z,3.65
2023-07-01T13:35:09.052Z,3.30
2023-07-01T13:38:07.347Z,3.40
2023-07-01T13:40:56.328Z,3.80
2023-07-01T13:43:43.906Z,3.25
2023-07-01T13:46:41.787Z,3.05
2023-07-01T13:49:30.737Z,3.30
2023-07-01T13:52:17.003Z,2.80
2023-07-01T13:55:08.555Z,4.00
2023-07-01T13:57:54.867Z,3.55
2023-07-01T14:00:50.496Z,3.30
2023-07-01T14:03:47.831Z,3.38
2023-07-01T14:06:40.092Z,3.20
2023-07-01T14:09:30.501Z,3.10
2023-07-01T14:12:18.072Z,3.40
2023-07-01T14:15:07.547Z,3.40
2023-07-01T14:17:53.563Z,3.28
2023-07-01T14:23:36.742Z,3.17
2023-07-01T14:26:27.538Z,3.42
2023-07-01T14:29:17.156Z,3.90
2023-07-01T14:32:06.418Z,3.42
2023-07-01T14:34:52.696Z,3.38
2023-07-01T14:37:39.470Z,3.20
2023-07-01T14:40:25.339Z,3.10
2023-07-01T14:43:12.660Z,3.17
2023-07-01T14:45:58.878Z,3.00
2023-07-01T14:48:46.766Z,3.35
2023-07-01T14:51:33.229Z,3.10
2023-07-01T14:54:19.311Z,3.60
2023-07-01T14:57:06.038Z,3.10
2023-07-01T14:59:52.304Z,3.20
2023-07-01T15:02:41.026Z,2.95
2023-07-01T15:05:27.089Z,3.42
2023-07-01T15:08:13.245Z,3.15
2023-07-01T15:10:59.219Z,3.35
2023-07-01T15:13:45.229Z,3.40
2023-07-01T15:16:31.521Z,3.28
2023-07-01T15:19:18.118Z,3.80
2023-07-01T15:22:05.410Z,3.70
2023-07-01T15:24:51.871Z,3.50
2023-07-01T15:27:38.243Z,3.85
2023-07-01T15:30:24.229Z,3.88
2023-07-01T15:33:10.587Z,4.25
2023-07-01T15:38:43.065Z,4.10
2023-07-01T15:44:33.909Z,5.13
2023-07-01T15:47:19.904Z,3.83
2023-07-01T15:50:07.124Z,4.55
2023-07-01T15:52:53.104Z,4.40
2023-07-01T15:55:39.046Z,4.35
2023-07-01T15:58:26.528Z,3.78
2023-07-01T16:01:13.194Z,4.57
2023-07-01T16:03:59.246Z,4.60
2023-07-01T16:06:47.373Z,4.15
2023-07-01T16:09:42.750Z,4.22
2023-07-01T16:12:38.199Z,4.60
2023-07-01T16:15:25.634Z,4.50
2023-07-01T16:18:45.069Z,4.55
2023-07-01T16:21:31.927Z,4.78
2023-07-01T16:24:36.693Z,4.93
2023-07-01T16:27:25.234Z,4.32
2023-07-01T16:30:14.859Z,5.03
2023-07-01T16:33:02.167Z,4.90
2023-07-01T16:35:54.634Z,4.70
2023-07-01T16:38:40.507Z,4.55
2023-07-01T16:41:28.056Z,4.40
2023-07-01T16:44:14.698Z,4.43
2023-07-01T16:47:00.590Z,4.50
2023-07-01T16:49:47.172Z,4.60
2023-07-01T16:55:38.523Z,4.40
2023-07-01T16:58:38.049Z,4.10
2023-07-01T17:01:41.433Z,4.10
2023-07-01T17:04:34.295Z,5.13
2023-07-01T17:07:22.136Z,4.10
2023-07-01T17:10:38.368Z,4.43
2023-07-01T17:13:38.545Z,4.38
2023-07-01T17:16:26.044Z,4.53
2023-07-01T17:19:12.531Z,4.40
2023-07-01T17:21:58.701Z,4.43
2023-07-01T17:27:31.146Z,3.80
2023-07-01T17:30:17.638Z,4.40
2023-07-01T17:33:03.916Z,4.22
2023-07-01T17:38:36.830Z,4.25
2023-07-01T17:41:22.798Z,4.07
2023-07-01T17:44:08.835Z,4.28
2023-07-01T17:49:42.347Z,3.97
2023-07-01T17:52:28.658Z,4.10
2023-07-01T17:55:15.068Z,4.50
2023-07-01T18:00:50.888Z,3.95
2023-07-01T18:03:36.911Z,4.10
2023-07-01T18:09:09.060Z,4.05
2023-07-01T18:11:55.331Z,5.40
2023-07-01T18:14:41.829Z,4.00
2023-07-01T18:20:14.405Z,4.38
2023-07-01T18:23:00.274Z,4.20
2023-07-01T18:25:46.656Z,4.53
2023-07-01T18:31:19.877Z,4.60
2023-07-01T18:34:07.152Z,4.10
2023-07-01T18:36:53.394Z,4.40
2023-07-01T18:39:40.555Z,3.83
2023-07-01T18:42:26.715Z,4.10
2023-07-01T18:45:16.329Z,4.43
2023-07-01T18:48:02.585Z,4.20
2023-07-01T18:50:48.681Z,4.03
2023-07-01T18:53:36.414Z,4.18
2023-07-01T18:56:23.147Z,3.90
2023-07-01T18:59:09.109Z,3.70
2023-07-01T19:01:55.188Z,4.18
2023-07-01T19:04:43.777Z,3.90
2023-07-01T19:07:30.339Z,4.35
2023-07-01T19:10:16.158Z,3.70
2023-07-01T19:13:02.633Z,4.18
2023-07-01T19:18:34.526Z,3.83
2023-07-01T19:21:20.626Z,4.00
2023-07-01T19:24:09.980Z,4.28
2023-07-01T19:26:57.610Z,3.97
2023-07-01T19:29:43.924Z,3.60
2023-07-01T19:32:30.561Z,3.90
2023-07-01T19:38:03.393Z,4.30
2023-07-01T19:40:49.701Z,3.90
2023-07-01T19:43:36.354Z,3.88
2023-07-01T19:46:22.369Z,3.90
2023-07-01T19:49:08.664Z,3.97
2023-07-01T19:51:54.515Z,4.20
2023-07-01T19:54:40.447Z,3.65
2023-07-01T19:57:26.396Z,3.55
2023-07-01T20:00:12.642Z,2.88
2023-07-01T20:05:45.851Z,3.38
2023-07-01T20:08:32.124Z,3.03
2023-07-01T20:11:18.212Z,3.00
2023-07-01T20:14:04.183Z,2.90
2023-07-01T20:16:50.146Z,2.40
2023-07-01T20:19:36.065Z,2.88
2023-07-01T20:22:22.648Z,2.85
2023-07-01T20:25:09.482Z,2.67
2023-07-01T20:27:55.583Z,2.88
2023-07-01T20:30:41.814Z,2.80
2023-07-01T20:33:30.563Z,3.03
2023-07-01T20:36:16.680Z,2.90
2023-07-01T20:39:03.414Z,3.15
2023-07-01T20:42:02.971Z,3.47
2023-07-01T20:44:53.679Z,3.22
2023-07-01T20:47:40.207Z,3.03
2023-07-01T20:50:26.647Z,3.00
2023-07-01T20:53:13.207Z,2.63
2023-07-01T20:55:59.150Z,2.88
2023-07-01T20:58:45.069Z,2.80
2023-07-01T21:01:31.082Z,2.80
2023-07-01T21:04:17.038Z,3.33
2023-07-01T21:07:04.612Z,3.25
2023-07-01T21:09:50.892Z,3.08
2023-07-01T21:15:23.019Z,3.08
2023-07-01T21:18:09.096Z,3.30
2023-07-01T21:20:54.971Z,3.17
2023-07-01T21:23:40.927Z,3.30
2023-07-01T21:26:28.231Z,2.58
2023-07-01T21:29:16.430Z,3.20
2023-07-01T21:32:04.607Z,3.30
2023-07-01T21:34:51.990Z,3.15
2023-07-01T21:37:38.150Z,3.13
2023-07-01T21:43:18.550Z,3.03
2023-07-01T21:46:04.848Z,3.50
2023-07-01T21:48:50.941Z,3.08
2023-07-01T21:51:37.086Z,3.10
2023-07-01T21:57:09.697Z,3.20
2023-07-01T21:59:55.631Z,3.10
2023-07-01T22:02:41.695Z,3.20
2023-07-01T22:05:27.948Z,3.33
2023-07-01T22:08:13.939Z,3.30
2023-07-01T22:11:00.481Z,3.50
2023-07-01T22:13:47.503Z,3.30
2023-07-01T22:19:20.840Z,3.08
2023-07-01T22:22:07.034Z,4.05
2023-07-01T22:24:58.416Z,3.30
2023-07-01T22:27:44.798Z,3.58
2023-07-01T22:30:31.249Z,3.30
2023-07-01T22:33:17.394Z,3.28
2023-07-01T22:36:03.969Z,3.22
2023-07-01T22:38:50.117Z,3.72
2023-07-01T22:41:36.130Z,3.65
2023-07-01T22:44:22.205Z,3.47
2023-07-01T22:47:08.426Z,3.60
2023-07-01T22:52:41.644Z,3.33
2023-07-01T22:55:28.559Z,3.60
2023-07-01T22:58:14.825Z,3.60
2023-07-01T23:01:00.846Z,3.38
2023-07-01T23:03:46.917Z,3.40
2023-07-01T23:06:33.507Z,3.60
2023-07-01T23:09:19.480Z,3.60
2023-07-01T23:12:05.584Z,3.50
2023-07-01T23:14:51.647Z,3.10
2023-07-01T23:17:37.723Z,3.60
2023-07-01T23:20:25.301Z,3.70
2023-07-01T23:23:14.694Z,3.53
2023-07-01T23:26:01.295Z,2.90
2023-07-01T23:28:47.570Z,3.53
2023-07-01T23:31:33.780Z,3.40
2023-07-01T23:34:20.093Z,3.67
2023-07-01T23:37:06.936Z,3.40
2023-07-01T23:42:39.203Z,3.10
2023-07-01T23:45:25.054Z,3.45
2023-07-01T23:48:11.263Z,3.67
2023-07-01T23:50:57.743Z,3.20
2023-07-01T23:53:43.856Z,3.10
2023-07-01T23:56:31.319Z,3.22
2023-07-01T23:59:17.646Z,3.50
